sensor_id;sensor_type;location;lat;lon;timestamp;P1;durP1;ratioP1;P2;durP2;ratioP2
76617;SDS011;65509;42.816;74.648;2024-03-07T00:00:20;108.25;;;49.17;;
76617;SDS011;65509;42.816;74.648;2024-03-07T00:02:47;111.00;;;55.03;;
76617;SDS011;65509;42.816;74.648;2024-03-07T00:05:13;106.82;;;51.22;;
76617;SDS011;65509;42.816;74.648;2024-03-07T00:07:38;94.07;;;44.83;;
76617;SDS011;65509;42.816;74.648;2024-03-07T00:10:05;117.18;;;59.53;;
76617;SDS011;65509;42.816;74.648;2024-03-07T00:12:35;92.43;;;46.28;;
76617;SDS011;65509;42.816;74.648;2024-03-07T00:15:01;82.03;;;40.53;;
76617;SDS011;65509;42.816;74.648;2024-03-07T00:17:26;89.20;;;37.15;;
76617;SDS011;65509;42.816;74.648;2024-03-07T00:19:52;68.85;;;32.50;;
76617;SDS011;65509;42.816;74.648;2024-03-07T00:22:17;50.92;;;21.55;;
76617;SDS011;65509;42.816;74.648;2024-03-07T00:24:42;41.70;;;18.00;;
76617;SDS011;65509;42.816;74.648;2024-03-07T00:27:08;52.35;;;18.52;;
76617;SDS011;65509;42.816;74.648;2024-03-07T00:29:33;54.85;;;18.75;;
76617;SDS011;65509;42.816;74.648;2024-03-07T00:32:03;47.95;;;20.23;;
76617;SDS011;65509;42.816;74.648;2024-03-07T00:34:28;61.50;;;20.30;;
76617;SDS011;65509;42.816;74.648;2024-03-07T00:36:53;43.22;;;18.63;;
76617;SDS011;65509;42.816;74.648;2024-03-07T00:39:21;47.28;;;19.02;;
76617;SDS011;65509;42.816;74.648;2024-03-07T00:41:49;37.83;;;18.67;;
76617;SDS011;65509;42.816;74.648;2024-03-07T00:44:15;39.70;;;19.70;;
76617;SDS011;65509;42.816;74.648;2024-03-07T00:46:40;45.72;;;19.52;;
76617;SDS011;65509;42.816;74.648;2024-03-07T00:49:06;56.00;;;21.17;;
76617;SDS011;65509;42.816;74.648;2024-03-07T00:51:31;74.97;;;18.88;;
76617;SDS011;65509;42.816;74.648;2024-03-07T00:53:56;60.70;;;23.42;;
76617;SDS011;65509;42.816;74.648;2024-03-07T00:56:23;74.38;;;23.55;;
76617;SDS011;65509;42.816;74.648;2024-03-07T00:58:48;56.13;;;22.17;;
76617;SDS011;65509;42.816;74.648;2024-03-07T01:01:14;63.92;;;24.33;;
76617;SDS011;65509;42.816;74.648;2024-03-07T01:03:40;47.20;;;23.55;;
76617;SDS011;65509;42.816;74.648;2024-03-07T01:06:06;62.60;;;22.85;;
76617;SDS011;65509;42.816;74.648;2024-03-07T01:08:31;64.38;;;20.80;;
76617;SDS011;65509;42.816;74.648;2024-03-07T01:10:58;47.13;;;14.10;;
76617;SDS011;65509;42.816;74.648;2024-03-07T01:13:23;58.22;;;22.95;;
76617;SDS011;65509;42.816;74.648;2024-03-07T01:15:49;53.03;;;24.95;;
76617;SDS011;65509;42.816;74.648;2024-03-07T01:18:15;61.05;;;27.45;;
76617;SDS011;65509;42.816;74.648;2024-03-07T01:20:40;59.40;;;24.65;;
76617;SDS011;65509;42.816;74.648;2024-03-07T01:23:06;63.40;;;23.33;;
76617;SDS011;65509;42.816;74.648;2024-03-07T01:25:33;67.35;;;22.17;;
76617;SDS011;65509;42.816;74.648;2024-03-07T01:27:59;43.33;;;19.92;;
76617;SDS011;65509;42.816;74.648;2024-03-07T01:30:25;69.13;;;15.27;;
76617;SDS011;65509;42.816;74.648;2024-03-07T01:32:53;50.17;;;20.15;;
76617;SDS011;65509;42.816;74.648;2024-03-07T01:35:18;58.10;;;22.15;;
76617;SDS011;65509;42.816;74.648;2024-03-07T01:37:44;50.78;;;18.90;;
76617;SDS011;65509;42.816;74.648;2024-03-07T01:40:09;54.65;;;19.38;;
76617;SDS011;65509;42.816;74.648;2024-03-07T01:42:36;84.25;;;31.73;;
76617;SDS011;65509;42.816;74.648;2024-03-07T01:45:02;84.68;;;45.22;;
76617;SDS011;65509;42.816;74.648;2024-03-07T01:47:27;112.38;;;35.15;;
76617;SDS011;65509;42.816;74.648;2024-03-07T01:49:52;83.05;;;31.17;;
76617;SDS011;65509;42.816;74.648;2024-03-07T01:52:18;101.75;;;39.35;;
76617;SDS011;65509;42.816;74.648;2024-03-07T01:54:43;112.85;;;47.40;;
76617;SDS011;65509;42.816;74.648;2024-03-07T01:57:14;100.75;;;51.58;;
76617;SDS011;65509;42.816;74.648;2024-03-07T01:59:41;104.15;;;52.97;;
76617;SDS011;65509;42.816;74.648;2024-03-07T02:02:08;110.85;;;62.75;;
76617;SDS011;65509;42.816;74.648;2024-03-07T02:04:34;133.27;;;72.00;;
76617;SDS011;65509;42.816;74.648;2024-03-07T02:07:00;119.38;;;67.00;;
76617;SDS011;65509;42.816;74.648;2024-03-07T02:09:25;103.70;;;51.00;;
76617;SDS011;65509;42.816;74.648;2024-03-07T02:11:51;83.68;;;44.35;;
76617;SDS011;65509;42.816;74.648;2024-03-07T02:14:16;79.35;;;41.08;;
76617;SDS011;65509;42.816;74.648;2024-03-07T02:16:42;88.60;;;39.83;;
76617;SDS011;65509;42.816;74.648;2024-03-07T02:19:08;79.50;;;27.95;;
76617;SDS011;65509;42.816;74.648;2024-03-07T02:21:35;56.85;;;20.50;;
76617;SDS011;65509;42.816;74.648;2024-03-07T02:24:01;52.13;;;19.13;;
76617;SDS011;65509;42.816;74.648;2024-03-07T02:26:27;72.40;;;19.75;;
76617;SDS011;65509;42.816;74.648;2024-03-07T02:28:52;62.35;;;19.33;;
76617;SDS011;65509;42.816;74.648;2024-03-07T02:31:18;61.47;;;21.70;;
76617;SDS011;65509;42.816;74.648;2024-03-07T02:33:44;86.90;;;24.42;;
76617;SDS011;65509;42.816;74.648;2024-03-07T02:36:09;94.75;;;25.95;;
76617;SDS011;65509;42.816;74.648;2024-03-07T02:38:35;106.28;;;27.63;;
76617;SDS011;65509;42.816;74.648;2024-03-07T02:41:00;83.25;;;26.85;;
76617;SDS011;65509;42.816;74.648;2024-03-07T02:43:26;69.00;;;24.27;;
76617;SDS011;65509;42.816;74.648;2024-03-07T02:45:51;72.57;;;25.27;;
76617;SDS011;65509;42.816;74.648;2024-03-07T02:48:16;77.80;;;25.38;;
76617;SDS011;65509;42.816;74.648;2024-03-07T02:50:43;60.75;;;22.92;;
76617;SDS011;65509;42.816;74.648;2024-03-07T02:53:09;67.53;;;25.42;;
76617;SDS011;65509;42.816;74.648;2024-03-07T02:55:34;91.38;;;26.88;;
76617;SDS011;65509;42.816;74.648;2024-03-07T02:57:59;58.00;;;25.75;;
76617;SDS011;65509;42.816;74.648;2024-03-07T03:00:25;64.72;;;25.60;;
76617;SDS011;65509;42.816;74.648;2024-03-07T03:02:57;55.90;;;22.85;;
76617;SDS011;65509;42.816;74.648;2024-03-07T03:05:23;76.53;;;24.80;;
76617;SDS011;65509;42.816;74.648;2024-03-07T03:07:48;60.58;;;23.13;;
76617;SDS011;65509;42.816;74.648;2024-03-07T03:10:21;58.35;;;25.90;;
76617;SDS011;65509;42.816;74.648;2024-03-07T03:12:49;60.40;;;23.73;;
76617;SDS011;65509;42.816;74.648;2024-03-07T03:15:15;74.88;;;25.60;;
76617;SDS011;65509;42.816;74.648;2024-03-07T03:17:40;73.80;;;27.92;;
76617;SDS011;65509;42.816;74.648;2024-03-07T03:20:06;54.72;;;25.83;;
76617;SDS011;65509;42.816;74.648;2024-03-07T03:22:43;63.92;;;24.77;;
76617;SDS011;65509;42.816;74.648;2024-03-07T03:25:09;49.40;;;27.35;;
76617;SDS011;65509;42.816;74.648;2024-03-07T03:27:34;56.25;;;23.83;;
76617;SDS011;65509;42.816;74.648;2024-03-07T03:30:01;52.25;;;24.23;;
76617;SDS011;65509;42.816;74.648;2024-03-07T03:32:27;48.83;;;23.55;;
76617;SDS011;65509;42.816;74.648;2024-03-07T03:34:52;49.67;;;24.35;;
76617;SDS011;65509;42.816;74.648;2024-03-07T03:37:19;53.05;;;23.60;;
76617;SDS011;65509;42.816;74.648;2024-03-07T03:39:45;79.90;;;26.25;;
76617;SDS011;65509;42.816;74.648;2024-03-07T03:42:12;60.53;;;30.10;;
76617;SDS011;65509;42.816;74.648;2024-03-07T03:44:37;75.22;;;32.30;;
76617;SDS011;65509;42.816;74.648;2024-03-07T03:47:03;76.28;;;33.00;;
76617;SDS011;65509;42.816;74.648;2024-03-07T03:49:29;74.93;;;32.20;;
76617;SDS011;65509;42.816;74.648;2024-03-07T03:51:54;67.55;;;32.17;;
76617;SDS011;65509;42.816;74.648;2024-03-07T03:54:20;75.38;;;32.80;;
76617;SDS011;65509;42.816;74.648;2024-03-07T03:56:45;72.65;;;33.55;;
76617;SDS011;65509;42.816;74.648;2024-03-07T03:59:10;57.22;;;30.70;;
76617;SDS011;65509;42.816;74.648;2024-03-07T04:01:36;67.82;;;32.30;;
76617;SDS011;65509;42.816;74.648;2024-03-07T04:04:01;69.40;;;29.90;;
76617;SDS011;65509;42.816;74.648;2024-03-07T04:06:27;53.47;;;29.63;;
76617;SDS011;65509;42.816;74.648;2024-03-07T04:08:52;67.78;;;29.75;;
76617;SDS011;65509;42.816;74.648;2024-03-07T04:11:20;86.47;;;34.45;;
76617;SDS011;65509;42.816;74.648;2024-03-07T04:13:46;98.05;;;34.17;;
76617;SDS011;65509;42.816;74.648;2024-03-07T04:16:14;77.65;;;35.22;;
76617;SDS011;65509;42.816;74.648;2024-03-07T04:18:39;95.57;;;33.80;;
76617;SDS011;65509;42.816;74.648;2024-03-07T04:21:05;71.32;;;32.60;;
76617;SDS011;65509;42.816;74.648;2024-03-07T04:23:30;81.93;;;37.45;;
76617;SDS011;65509;42.816;74.648;2024-03-07T04:25:55;75.55;;;34.53;;
76617;SDS011;65509;42.816;74.648;2024-03-07T04:28:21;68.80;;;31.73;;
76617;SDS011;65509;42.816;74.648;2024-03-07T04:30:47;90.13;;;33.55;;
76617;SDS011;65509;42.816;74.648;2024-03-07T04:33:14;61.55;;;32.70;;
76617;SDS011;65509;42.816;74.648;2024-03-07T04:35:41;83.03;;;33.25;;
76617;SDS011;65509;42.816;74.648;2024-03-07T04:38:06;73.40;;;34.90;;
76617;SDS011;65509;42.816;74.648;2024-03-07T04:40:36;92.30;;;33.38;;
76617;SDS011;65509;42.816;74.648;2024-03-07T04:43:02;61.95;;;28.95;;
76617;SDS011;65509;42.816;74.648;2024-03-07T04:45:28;74.07;;;35.20;;
76617;SDS011;65509;42.816;74.648;2024-03-07T04:47:53;80.68;;;32.20;;
76617;SDS011;65509;42.816;74.648;2024-03-07T04:50:22;58.53;;;27.65;;
76617;SDS011;65509;42.816;74.648;2024-03-07T04:52:47;76.05;;;31.95;;
76617;SDS011;65509;42.816;74.648;2024-03-07T04:55:13;66.70;;;29.17;;
76617;SDS011;65509;42.816;74.648;2024-03-07T04:57:39;73.40;;;29.23;;
76617;SDS011;65509;42.816;74.648;2024-03-07T05:00:10;60.22;;;31.85;;
76617;SDS011;65509;42.816;74.648;2024-03-07T05:02:39;73.57;;;32.35;;
76617;SDS011;65509;42.816;74.648;2024-03-07T05:05:05;66.40;;;31.55;;
76617;SDS011;65509;42.816;74.648;2024-03-07T05:07:30;60.90;;;30.42;;
76617;SDS011;65509;42.816;74.648;2024-03-07T05:09:56;68.93;;;34.78;;
76617;SDS011;65509;42.816;74.648;2024-03-07T05:12:21;68.07;;;33.63;;
76617;SDS011;65509;42.816;74.648;2024-03-07T05:14:46;63.00;;;31.63;;
76617;SDS011;65509;42.816;74.648;2024-03-07T05:17:12;66.90;;;31.67;;
76617;SDS011;65509;42.816;74.648;2024-03-07T05:19:37;89.63;;;35.47;;
76617;SDS011;65509;42.816;74.648;2024-03-07T05:22:03;70.18;;;33.58;;
76617;SDS011;65509;42.816;74.648;2024-03-07T05:24:32;60.53;;;29.83;;
76617;SDS011;65509;42.816;74.648;2024-03-07T05:26:59;59.22;;;30.58;;
76617;SDS011;65509;42.816;74.648;2024-03-07T05:29:24;70.53;;;30.83;;
76617;SDS011;65509;42.816;74.648;2024-03-07T05:31:50;80.70;;;29.02;;
76617;SDS011;65509;42.816;74.648;2024-03-07T05:34:15;56.53;;;27.38;;
76617;SDS011;65509;42.816;74.648;2024-03-07T05:36:44;85.30;;;29.23;;
76617;SDS011;65509;42.816;74.648;2024-03-07T05:39:11;60.70;;;30.13;;
76617;SDS011;65509;42.816;74.648;2024-03-07T05:41:37;72.65;;;29.35;;
76617;SDS011;65509;42.816;74.648;2024-03-07T05:44:03;60.65;;;29.95;;
76617;SDS011;65509;42.816;74.648;2024-03-07T05:46:29;56.90;;;28.55;;
76617;SDS011;65509;42.816;74.648;2024-03-07T05:48:55;58.65;;;28.60;;
76617;SDS011;65509;42.816;74.648;2024-03-07T05:51:25;68.20;;;32.72;;
76617;SDS011;65509;42.816;74.648;2024-03-07T05:53:50;87.53;;;32.72;;
76617;SDS011;65509;42.816;74.648;2024-03-07T05:56:16;57.40;;;31.23;;
76617;SDS011;65509;42.816;74.648;2024-03-07T05:58:41;106.05;;;33.03;;
76617;SDS011;65509;42.816;74.648;2024-03-07T06:01:07;63.72;;;29.67;;
76617;SDS011;65509;42.816;74.648;2024-03-07T06:03:33;63.72;;;27.80;;
76617;SDS011;65509;42.816;74.648;2024-03-07T06:05:59;56.70;;;27.70;;
76617;SDS011;65509;42.816;74.648;2024-03-07T06:08:24;61.35;;;25.17;;
76617;SDS011;65509;42.816;74.648;2024-03-07T06:10:50;73.88;;;25.85;;
76617;SDS011;65509;42.816;74.648;2024-03-07T06:13:16;64.38;;;26.50;;
76617;SDS011;65509;42.816;74.648;2024-03-07T06:15:44;49.15;;;25.90;;
76617;SDS011;65509;42.816;74.648;2024-03-07T06:18:21;61.78;;;26.92;;
76617;SDS011;65509;42.816;74.648;2024-03-07T06:20:47;70.85;;;25.23;;
76617;SDS011;65509;42.816;74.648;2024-03-07T06:23:13;52.30;;;26.00;;
76617;SDS011;65509;42.816;74.648;2024-03-07T06:25:41;74.82;;;26.67;;
76617;SDS011;65509;42.816;74.648;2024-03-07T06:30:41;70.63;;;27.07;;
76617;SDS011;65509;42.816;74.648;2024-03-07T06:33:08;73.78;;;25.27;;
76617;SDS011;65509;42.816;74.648;2024-03-07T06:35:33;57.90;;;23.83;;
76617;SDS011;65509;42.816;74.648;2024-03-07T06:38:05;46.35;;;23.20;;
76617;SDS011;65509;42.816;74.648;2024-03-07T06:40:31;52.60;;;25.00;;
76617;SDS011;65509;42.816;74.648;2024-03-07T06:42:58;57.45;;;25.48;;
76617;SDS011;65509;42.816;74.648;2024-03-07T06:45:23;65.38;;;25.30;;
76617;SDS011;65509;42.816;74.648;2024-03-07T06:47:50;63.15;;;24.48;;
76617;SDS011;65509;42.816;74.648;2024-03-07T06:50:17;63.38;;;24.83;;
76617;SDS011;65509;42.816;74.648;2024-03-07T06:52:45;70.88;;;24.67;;
76617;SDS011;65509;42.816;74.648;2024-03-07T06:55:13;60.88;;;23.90;;
76617;SDS011;65509;42.816;74.648;2024-03-07T06:57:40;57.50;;;23.95;;
76617;SDS011;65509;42.816;74.648;2024-03-07T07:00:05;58.90;;;24.77;;
76617;SDS011;65509;42.816;74.648;2024-03-07T07:02:37;41.15;;;22.13;;
76617;SDS011;65509;42.816;74.648;2024-03-07T07:05:03;57.17;;;24.80;;
76617;SDS011;65509;42.816;74.648;2024-03-07T07:07:32;59.72;;;26.67;;
76617;SDS011;65509;42.816;74.648;2024-03-07T07:09:59;52.08;;;24.05;;
76617;SDS011;65509;42.816;74.648;2024-03-07T07:12:25;61.13;;;26.17;;
76617;SDS011;65509;42.816;74.648;2024-03-07T07:14:50;67.43;;;24.23;;
76617;SDS011;65509;42.816;74.648;2024-03-07T07:17:15;51.17;;;23.77;;
76617;SDS011;65509;42.816;74.648;2024-03-07T07:19:41;62.67;;;23.67;;
76617;SDS011;65509;42.816;74.648;2024-03-07T07:22:06;53.67;;;25.80;;
76617;SDS011;65509;42.816;74.648;2024-03-07T07:24:32;68.32;;;29.52;;
76617;SDS011;65509;42.816;74.648;2024-03-07T07:26:59;59.50;;;27.33;;
76617;SDS011;65509;42.816;74.648;2024-03-07T07:29:26;68.30;;;28.17;;
76617;SDS011;65509;42.816;74.648;2024-03-07T07:31:51;77.88;;;25.85;;
76617;SDS011;65509;42.816;74.648;2024-03-07T07:34:17;68.38;;;28.73;;
76617;SDS011;65509;42.816;74.648;2024-03-07T07:36:42;83.32;;;32.72;;
76617;SDS011;65509;42.816;74.648;2024-03-07T07:39:08;61.15;;;28.63;;
76617;SDS011;65509;42.816;74.648;2024-03-07T07:41:42;68.43;;;28.45;;
76617;SDS011;65509;42.816;74.648;2024-03-07T07:44:07;55.08;;;27.85;;
76617;SDS011;65509;42.816;74.648;2024-03-07T07:46:33;70.45;;;32.97;;
76617;SDS011;65509;42.816;74.648;2024-03-07T07:48:59;60.15;;;32.55;;
76617;SDS011;65509;42.816;74.648;2024-03-07T07:51:25;54.90;;;30.60;;
76617;SDS011;65509;42.816;74.648;2024-03-07T07:53:54;76.10;;;35.92;;
76617;SDS011;65509;42.816;74.648;2024-03-07T07:56:22;68.20;;;33.55;;
76617;SDS011;65509;42.816;74.648;2024-03-07T07:58:49;80.68;;;37.15;;
76617;SDS011;65509;42.816;74.648;2024-03-07T08:01:14;58.58;;;32.70;;
76617;SDS011;65509;42.816;74.648;2024-03-07T08:03:42;68.45;;;30.75;;
76617;SDS011;65509;42.816;74.648;2024-03-07T08:06:08;60.97;;;28.33;;
76617;SDS011;65509;42.816;74.648;2024-03-07T08:08:33;62.35;;;29.08;;
76617;SDS011;65509;42.816;74.648;2024-03-07T08:10:59;75.90;;;28.17;;
76617;SDS011;65509;42.816;74.648;2024-03-07T08:13:25;55.78;;;29.33;;
76617;SDS011;65509;42.816;74.648;2024-03-07T08:15:50;73.10;;;29.80;;
76617;SDS011;65509;42.816;74.648;2024-03-07T08:18:24;55.78;;;28.35;;
76617;SDS011;65509;42.816;74.648;2024-03-07T08:20:55;75.60;;;29.55;;
76617;SDS011;65509;42.816;74.648;2024-03-07T08:23:21;63.20;;;26.95;;
76617;SDS011;65509;42.816;74.648;2024-03-07T08:25:50;69.78;;;29.10;;
76617;SDS011;65509;42.816;74.648;2024-03-07T08:28:16;58.55;;;29.52;;
76617;SDS011;65509;42.816;74.648;2024-03-07T08:30:44;59.10;;;28.42;;
76617;SDS011;65509;42.816;74.648;2024-03-07T08:33:10;64.28;;;29.45;;
76617;SDS011;65509;42.816;74.648;2024-03-07T08:35:39;62.08;;;28.02;;
76617;SDS011;65509;42.816;74.648;2024-03-07T08:38:04;42.22;;;24.83;;
76617;SDS011;65509;42.816;74.648;2024-03-07T08:40:30;52.65;;;25.00;;
76617;SDS011;65509;42.816;74.648;2024-03-07T08:42:59;68.30;;;26.23;;
76617;SDS011;65509;42.816;74.648;2024-03-07T08:45:25;59.00;;;25.55;;
76617;SDS011;65509;42.816;74.648;2024-03-07T08:47:51;57.03;;;27.20;;
76617;SDS011;65509;42.816;74.648;2024-03-07T08:50:17;60.80;;;30.13;;
76617;SDS011;65509;42.816;74.648;2024-03-07T08:52:43;62.22;;;28.48;;
76617;SDS011;65509;42.816;74.648;2024-03-07T08:55:09;54.47;;;28.35;;
76617;SDS011;65509;42.816;74.648;2024-03-07T08:57:38;50.78;;;26.17;;
76617;SDS011;65509;42.816;74.648;2024-03-07T09:00:04;70.90;;;28.52;;
76617;SDS011;65509;42.816;74.648;2024-03-07T09:02:39;54.28;;;26.95;;
76617;SDS011;65509;42.816;74.648;2024-03-07T09:05:05;61.22;;;29.67;;
76617;SDS011;65509;42.816;74.648;2024-03-07T09:07:31;72.88;;;29.90;;
76617;SDS011;65509;42.816;74.648;2024-03-07T09:09:57;80.70;;;29.50;;
76617;SDS011;65509;42.816;74.648;2024-03-07T09:12:23;59.60;;;27.40;;
76617;SDS011;65509;42.816;74.648;2024-03-07T09:14:50;82.78;;;26.90;;
76617;SDS011;65509;42.816;74.648;2024-03-07T09:17:17;56.47;;;24.25;;
76617;SDS011;65509;42.816;74.648;2024-03-07T09:19:42;76.40;;;26.02;;
76617;SDS011;65509;42.816;74.648;2024-03-07T09:22:08;62.25;;;30.92;;
76617;SDS011;65509;42.816;74.648;2024-03-07T09:24:35;58.03;;;31.55;;
76617;SDS011;65509;42.816;74.648;2024-03-07T09:27:02;68.18;;;30.30;;
76617;SDS011;65509;42.816;74.648;2024-03-07T09:29:28;83.72;;;33.92;;
76617;SDS011;65509;42.816;74.648;2024-03-07T09:31:53;97.70;;;33.67;;
76617;SDS011;65509;42.816;74.648;2024-03-07T09:34:20;71.28;;;30.92;;
76617;SDS011;65509;42.816;74.648;2024-03-07T09:36:46;67.53;;;29.65;;
76617;SDS011;65509;42.816;74.648;2024-03-07T09:39:12;68.53;;;29.23;;
76617;SDS011;65509;42.816;74.648;2024-03-07T09:41:40;80.47;;;30.83;;
76617;SDS011;65509;42.816;74.648;2024-03-07T09:44:05;60.63;;;28.67;;
76617;SDS011;65509;42.816;74.648;2024-03-07T09:46:34;58.45;;;26.73;;
76617;SDS011;65509;42.816;74.648;2024-03-07T09:48:59;78.05;;;30.98;;
76617;SDS011;65509;42.816;74.648;2024-03-07T09:51:25;58.17;;;27.65;;
76617;SDS011;65509;42.816;74.648;2024-03-07T09:53:52;75.13;;;25.08;;
76617;SDS011;65509;42.816;74.648;2024-03-07T09:56:21;54.10;;;24.55;;
76617;SDS011;65509;42.816;74.648;2024-03-07T09:58:48;55.20;;;23.30;;
76617;SDS011;65509;42.816;74.648;2024-03-07T10:01:14;90.30;;;37.95;;
76617;SDS011;65509;42.816;74.648;2024-03-07T10:03:40;86.47;;;37.88;;
76617;SDS011;65509;42.816;74.648;2024-03-07T10:06:09;75.90;;;34.78;;
76617;SDS011;65509;42.816;74.648;2024-03-07T10:08:35;66.68;;;33.45;;
76617;SDS011;65509;42.816;74.648;2024-03-07T10:11:00;74.15;;;26.85;;
76617;SDS011;65509;42.816;74.648;2024-03-07T10:13:26;69.43;;;25.00;;
76617;SDS011;65509;42.816;74.648;2024-03-07T10:15:51;68.38;;;24.67;;
76617;SDS011;65509;42.816;74.648;2024-03-07T10:18:18;55.58;;;22.27;;
76617;SDS011;65509;42.816;74.648;2024-03-07T10:20:47;61.83;;;24.42;;
76617;SDS011;65509;42.816;74.648;2024-03-07T10:23:18;49.53;;;24.38;;
76617;SDS011;65509;42.816;74.648;2024-03-07T10:25:46;60.60;;;24.60;;
76617;SDS011;65509;42.816;74.648;2024-03-07T10:28:11;56.60;;;24.95;;
76617;SDS011;65509;42.816;74.648;2024-03-07T10:30:40;61.38;;;25.23;;
76617;SDS011;65509;42.816;74.648;2024-03-07T10:33:06;84.72;;;25.35;;
76617;SDS011;65509;42.816;74.648;2024-03-07T10:35:32;62.70;;;24.90;;
76617;SDS011;65509;42.816;74.648;2024-03-07T10:37:58;76.55;;;25.98;;
76617;SDS011;65509;42.816;74.648;2024-03-07T10:40:31;54.40;;;26.23;;
76617;SDS011;65509;42.816;74.648;2024-03-07T10:42:57;86.68;;;25.15;;
76617;SDS011;65509;42.816;74.648;2024-03-07T10:45:23;58.35;;;25.73;;
76617;SDS011;65509;42.816;74.648;2024-03-07T10:47:55;56.90;;;24.38;;
76617;SDS011;65509;42.816;74.648;2024-03-07T10:50:38;63.72;;;25.98;;
76617;SDS011;65509;42.816;74.648;2024-03-07T10:53:10;79.75;;;27.35;;
76617;SDS011;65509;42.816;74.648;2024-03-07T10:55:42;55.42;;;25.45;;
76617;SDS011;65509;42.816;74.648;2024-03-07T10:58:19;73.20;;;25.45;;
76617;SDS011;65509;42.816;74.648;2024-03-07T11:00:49;58.10;;;25.52;;
76617;SDS011;65509;42.816;74.648;2024-03-07T11:03:14;82.68;;;28.38;;
76617;SDS011;65509;42.816;74.648;2024-03-07T11:05:40;68.15;;;25.95;;
76617;SDS011;65509;42.816;74.648;2024-03-07T11:08:08;78.68;;;26.55;;
76617;SDS011;65509;42.816;74.648;2024-03-07T11:10:38;63.83;;;24.77;;
76617;SDS011;65509;42.816;74.648;2024-03-07T11:13:04;84.78;;;26.13;;
76617;SDS011;65509;42.816;74.648;2024-03-07T11:15:29;66.32;;;25.77;;
76617;SDS011;65509;42.816;74.648;2024-03-07T11:17:56;80.60;;;26.73;;
76617;SDS011;65509;42.816;74.648;2024-03-07T11:20:25;49.60;;;23.00;;
76617;SDS011;65509;42.816;74.648;2024-03-07T11:22:51;49.70;;;22.25;;
76617;SDS011;65509;42.816;74.648;2024-03-07T11:25:18;61.50;;;24.20;;
76617;SDS011;65509;42.816;74.648;2024-03-07T11:27:51;56.70;;;22.80;;
76617;SDS011;65509;42.816;74.648;2024-03-07T11:30:19;47.08;;;19.00;;
76617;SDS011;65509;42.816;74.648;2024-03-07T11:32:46;43.25;;;17.67;;
76617;SDS011;65509;42.816;74.648;2024-03-07T11:35:14;58.30;;;20.30;;
76617;SDS011;65509;42.816;74.648;2024-03-07T11:37:40;55.00;;;21.10;;
76617;SDS011;65509;42.816;74.648;2024-03-07T11:40:12;64.57;;;21.48;;
76617;SDS011;65509;42.816;74.648;2024-03-07T11:42:44;69.03;;;21.50;;
76617;SDS011;65509;42.816;74.648;2024-03-07T11:45:12;48.40;;;21.05;;
76617;SDS011;65509;42.816;74.648;2024-03-07T11:47:50;53.00;;;22.63;;
76617;SDS011;65509;42.816;74.648;2024-03-07T11:50:15;59.15;;;22.48;;
76617;SDS011;65509;42.816;74.648;2024-03-07T11:52:45;66.68;;;24.40;;
76617;SDS011;65509;42.816;74.648;2024-03-07T11:55:11;77.93;;;26.70;;
76617;SDS011;65509;42.816;74.648;2024-03-07T11:57:37;64.57;;;27.05;;
76617;SDS011;65509;42.816;74.648;2024-03-07T12:00:06;70.97;;;28.60;;
76617;SDS011;65509;42.816;74.648;2024-03-07T12:02:38;63.65;;;27.27;;
76617;SDS011;65509;42.816;74.648;2024-03-07T12:05:04;83.22;;;31.60;;
76617;SDS011;65509;42.816;74.648;2024-03-07T12:07:30;64.43;;;32.45;;
76617;SDS011;65509;42.816;74.648;2024-03-07T12:09:56;74.75;;;34.47;;
76617;SDS011;65509;42.816;74.648;2024-03-07T12:12:24;73.28;;;35.50;;
76617;SDS011;65509;42.816;74.648;2024-03-07T12:14:53;75.18;;;35.63;;
76617;SDS011;65509;42.816;74.648;2024-03-07T12:17:19;99.18;;;36.65;;
76617;SDS011;65509;42.816;74.648;2024-03-07T12:19:45;87.60;;;35.83;;
76617;SDS011;65509;42.816;74.648;2024-03-07T12:22:12;89.43;;;35.15;;
76617;SDS011;65509;42.816;74.648;2024-03-07T12:24:40;66.47;;;31.52;;
76617;SDS011;65509;42.816;74.648;2024-03-07T12:29:32;71.15;;;32.50;;
76617;SDS011;65509;42.816;74.648;2024-03-07T12:31:58;84.22;;;34.45;;
76617;SDS011;65509;42.816;74.648;2024-03-07T12:34:24;74.13;;;33.58;;
76617;SDS011;65509;42.816;74.648;2024-03-07T12:36:52;67.38;;;31.80;;
76617;SDS011;65509;42.816;74.648;2024-03-07T12:39:24;89.07;;;36.90;;
76617;SDS011;65509;42.816;74.648;2024-03-07T12:41:50;78.80;;;37.15;;
76617;SDS011;65509;42.816;74.648;2024-03-07T12:44:20;71.93;;;36.22;;
76617;SDS011;65509;42.816;74.648;2024-03-07T12:46:46;72.60;;;34.58;;
76617;SDS011;65509;42.816;74.648;2024-03-07T12:49:12;88.40;;;36.28;;
76617;SDS011;65509;42.816;74.648;2024-03-07T12:51:40;76.15;;;35.17;;
76617;SDS011;65509;42.816;74.648;2024-03-07T12:54:07;100.20;;;37.00;;
76617;SDS011;65509;42.816;74.648;2024-03-07T12:56:35;69.13;;;37.67;;
76617;SDS011;65509;42.816;74.648;2024-03-07T12:59:03;106.72;;;38.28;;
76617;SDS011;65509;42.816;74.648;2024-03-07T13:01:29;70.97;;;34.90;;
76617;SDS011;65509;42.816;74.648;2024-03-07T13:03:55;64.10;;;33.03;;
76617;SDS011;65509;42.816;74.648;2024-03-07T13:06:20;79.40;;;35.15;;
76617;SDS011;65509;42.816;74.648;2024-03-07T13:08:50;72.55;;;36.85;;
76617;SDS011;65509;42.816;74.648;2024-03-07T13:11:16;79.88;;;37.65;;
76617;SDS011;65509;42.816;74.648;2024-03-07T13:13:42;70.45;;;33.60;;
76617;SDS011;65509;42.816;74.648;2024-03-07T13:16:08;105.90;;;37.83;;
76617;SDS011;65509;42.816;74.648;2024-03-07T13:18:34;80.18;;;39.50;;
76617;SDS011;65509;42.816;74.648;2024-03-07T13:20:59;97.55;;;38.13;;
76617;SDS011;65509;42.816;74.648;2024-03-07T13:23:28;82.15;;;37.50;;
76617;SDS011;65509;42.816;74.648;2024-03-07T13:25:54;79.55;;;33.88;;
76617;SDS011;65509;42.816;74.648;2024-03-07T13:28:19;74.63;;;34.78;;
76617;SDS011;65509;42.816;74.648;2024-03-07T13:30:49;67.13;;;33.38;;
76617;SDS011;65509;42.816;74.648;2024-03-07T13:33:15;89.30;;;31.00;;
76617;SDS011;65509;42.816;74.648;2024-03-07T13:35:41;70.78;;;33.78;;
76617;SDS011;65509;42.816;74.648;2024-03-07T13:38:06;81.80;;;37.97;;
76617;SDS011;65509;42.816;74.648;2024-03-07T13:40:32;93.45;;;42.58;;
76617;SDS011;65509;42.816;74.648;2024-03-07T13:43:00;81.50;;;39.28;;
76617;SDS011;65509;42.816;74.648;2024-03-07T13:47:52;68.68;;;30.80;;
76617;SDS011;65509;42.816;74.648;2024-03-07T13:50:19;64.07;;;30.60;;
76617;SDS011;65509;42.816;74.648;2024-03-07T13:52:47;58.20;;;30.00;;
76617;SDS011;65509;42.816;74.648;2024-03-07T13:55:32;75.50;;;33.63;;
76617;SDS011;65509;42.816;74.648;2024-03-07T13:58:00;84.95;;;34.58;;
76617;SDS011;65509;42.816;74.648;2024-03-07T14:00:40;73.25;;;33.75;;
76617;SDS011;65509;42.816;74.648;2024-03-07T14:14:09;60.83;;;26.88;;
76617;SDS011;65509;42.816;74.648;2024-03-07T14:19:13;88.22;;;35.08;;
76617;SDS011;65509;42.816;74.648;2024-03-07T14:21:53;95.28;;;39.75;;
76617;SDS011;65509;42.816;74.648;2024-03-07T14:24:44;99.30;;;41.30;;
76617;SDS011;65509;42.816;74.648;2024-03-07T14:29:43;76.75;;;42.85;;